createdAt,value
2018-11-11T04:01:33.487Z,12.09
2018-11-11T04:02:13.422Z,12.04
2018-11-11T04:03:07.217Z,12.10
2018-11-11T04:06:10.861Z,12.07
2018-11-11T04:07:10.223Z,12.15
2018-11-11T04:08:11.189Z,12.09
2018-11-11T04:09:08.203Z,12.10
2018-11-11T04:10:08.333Z,12.03
2018-11-11T04:11:08.171Z,12.04
2018-11-11T04:12:08.279Z,12.04
2018-11-11T04:13:08.109Z,12.07
2018-11-11T04:14:07.619Z,12.03
2018-11-11T04:15:06.738Z,12.03
2018-11-11T04:16:07.998Z,12.07
2018-11-11T04:17:07.312Z,11.99
2018-11-11T04:18:08.604Z,11.99
2018-11-11T04:19:07.734Z,12.04
2018-11-11T04:20:07.696Z,12.03
2018-11-11T04:21:08.067Z,12.04
2018-11-11T04:22:08.414Z,12.03
2018-11-11T04:23:08.255Z,12.06
2018-11-11T04:24:10.058Z,12.03
2018-11-11T04:25:30.976Z,11.94
2018-11-11T04:26:20.350Z,11.91
2018-11-11T04:27:12.592Z,11.91
2018-11-11T04:28:15.351Z,11.90
2018-11-11T04:29:12.750Z,11.94
2018-11-11T04:30:13.538Z,12.02
2018-11-11T04:31:13.661Z,11.99
2018-11-11T04:32:12.099Z,12.02
2018-11-11T04:33:16.015Z,12.00
2018-11-11T04:34:18.174Z,12.12
2018-11-11T04:35:12.651Z,12.09
2018-11-11T04:36:12.635Z,12.02
2018-11-11T04:37:12.593Z,12.04
2018-11-11T04:38:12.764Z,11.97
2018-11-11T04:39:11.282Z,11.99
2018-11-11T04:40:11.106Z,12.04
2018-11-11T04:41:11.558Z,12.03
2018-11-11T04:42:11.408Z,11.99
2018-11-11T04:43:11.867Z,11.91
2018-11-11T04:44:12.004Z,12.00
2018-11-11T04:45:12.266Z,11.97
2018-11-11T04:46:13.194Z,12.04
2018-11-11T04:47:12.610Z,11.97
2018-11-11T04:48:12.604Z,12.04
2018-11-11T04:51:29.802Z,12.09
2018-11-11T04:52:30.844Z,12.12
2018-11-11T04:53:44.474Z,12.12
2018-11-11T04:54:32.847Z,12.00
2018-11-11T04:55:34.210Z,12.02
2018-11-11T04:56:37.736Z,12.06
2018-11-11T04:57:34.468Z,12.04
2018-11-11T04:58:31.545Z,12.00
2018-11-11T04:59:31.382Z,12.07
2018-11-11T05:00:31.910Z,12.03
2018-11-11T05:01:33.926Z,12.04
2018-11-11T05:02:31.835Z,12.07
2018-11-11T05:03:30.084Z,11.95
2018-11-11T05:04:30.705Z,12.02
2018-11-11T05:05:30.289Z,12.10
2018-11-11T05:06:30.427Z,12.04
2018-11-11T05:07:31.188Z,12.04
2018-11-11T05:08:30.928Z,12.13
2018-11-11T05:09:30.879Z,12.21
2018-11-11T05:10:31.560Z,12.12
2018-11-11T05:11:31.488Z,12.10
2018-11-11T05:12:31.537Z,12.13
2018-11-11T05:13:31.754Z,12.17
2018-11-11T05:14:31.883Z,12.20
2018-11-11T05:16:32.189Z,12.22
2018-11-11T05:17:32.683Z,12.24
2018-11-11T05:18:33.075Z,12.22
2018-11-11T05:19:32.891Z,12.35
2018-11-11T05:20:33.132Z,12.25
2018-11-11T05:21:33.021Z,12.22
2018-11-11T05:22:33.204Z,12.29
2018-11-11T05:23:33.953Z,12.27
2018-11-11T05:24:34.190Z,12.35
2018-11-11T05:26:34.909Z,12.27
2018-11-11T05:27:34.490Z,12.28
2018-11-11T05:28:34.464Z,12.28
2018-11-11T05:29:34.212Z,12.37
2018-11-11T05:30:34.331Z,12.36
2018-11-11T05:31:34.764Z,12.37
2018-11-11T05:32:35.034Z,12.32
2018-11-11T05:33:36.067Z,12.37
2018-11-11T05:34:37.335Z,12.36
2018-11-11T05:35:35.895Z,12.42
2018-11-11T05:36:36.423Z,12.50
2018-11-11T05:37:54.236Z,12.46
2018-11-11T05:39:12.926Z,12.40
2018-11-11T05:39:47.059Z,12.35
2018-11-11T05:40:47.880Z,12.45
2018-11-11T05:41:46.875Z,12.42
2018-11-11T05:42:57.231Z,12.54
2018-11-11T05:47:05.616Z,12.54
2018-11-11T05:48:01.200Z,12.55
2018-11-11T05:49:03.499Z,12.42
2018-11-11T05:50:08.017Z,12.49
2018-11-11T05:51:05.641Z,12.53
2018-11-11T05:53:01.871Z,12.54
2018-11-11T05:54:00.764Z,12.54
2018-11-11T05:55:00.981Z,12.53
2018-11-11T05:56:01.652Z,12.64
2018-11-11T05:57:01.342Z,12.58
2018-11-11T05:58:01.632Z,12.50
2018-11-11T05:58:59.907Z,12.57
2018-11-11T05:59:59.869Z,12.47
2018-11-11T06:01:00.612Z,12.58
2018-11-11T06:02:00.007Z,12.45
2018-11-11T06:03:00.439Z,12.50
2018-11-11T06:04:00.200Z,12.49
2018-11-11T06:05:00.955Z,12.54
2018-11-11T06:06:00.794Z,12.42
2018-11-11T06:07:00.924Z,12.39
2018-11-11T06:08:02.568Z,12.36
2018-11-11T06:09:01.394Z,12.47
2018-11-11T06:10:01.371Z,12.40
2018-11-11T06:11:02.725Z,12.40
2018-11-11T06:12:01.853Z,12.42
2018-11-11T06:13:01.903Z,12.46
2018-11-11T06:14:02.256Z,12.50
2018-11-11T06:15:02.435Z,12.40
2018-11-11T06:16:02.742Z,12.49
2018-11-11T06:17:04.481Z,12.55
2018-11-11T06:18:02.878Z,12.57
2018-11-11T06:21:29.584Z,12.40
2018-11-11T06:22:29.651Z,12.42
2018-11-11T06:24:33.865Z,12.43
2018-11-11T06:26:00.936Z,12.40
2018-11-11T06:26:37.471Z,12.39
2018-11-11T06:27:36.929Z,12.40
2018-11-11T06:28:31.846Z,12.45
2018-11-11T06:29:29.661Z,12.35
2018-11-11T06:30:30.162Z,12.37
2018-11-11T06:31:30.575Z,12.32
2018-11-11T06:32:29.611Z,12.31
2018-11-11T06:33:28.819Z,12.39
2018-11-11T06:34:28.422Z,12.35
2018-11-11T06:35:28.772Z,12.39
2018-11-11T06:36:29.070Z,12.31
2018-11-11T06:37:29.006Z,12.35
2018-11-11T06:38:29.526Z,12.39
2018-11-11T06:39:29.279Z,12.36
2018-11-11T06:40:30.547Z,12.28
2018-11-11T06:41:30.603Z,12.29
2018-11-11T06:42:30.057Z,12.29
2018-11-11T06:43:30.154Z,12.32
2018-11-11T06:44:29.923Z,12.28
2018-11-11T06:45:30.839Z,12.28
2018-11-11T06:47:31.029Z,12.24
2018-11-11T06:48:30.625Z,12.18
2018-11-11T06:49:30.841Z,12.18
2018-11-11T06:50:30.947Z,12.20
2018-11-11T06:51:31.202Z,12.15
2018-11-11T06:52:31.504Z,12.22
2018-11-11T06:53:32.072Z,12.17
2018-11-11T06:54:31.700Z,12.20
2018-11-11T06:55:31.902Z,12.17
2018-11-11T06:56:32.019Z,12.15
2018-11-11T06:57:32.744Z,12.20
2018-11-11T06:58:33.028Z,12.18
2018-11-11T06:59:32.778Z,12.13
2018-11-11T07:00:33.011Z,12.10
2018-11-11T07:01:32.932Z,12.12
2018-11-11T07:02:33.314Z,12.07
2018-11-11T07:03:33.299Z,12.12
2018-11-11T07:04:33.355Z,12.13
2018-11-11T07:05:33.728Z,12.10
2018-11-11T07:06:33.535Z,12.09
2018-11-11T07:11:13.631Z,11.97
2018-11-11T07:23:06.803Z,11.75
2018-11-11T07:26:51.252Z,11.68
2018-11-11T07:27:52.892Z,11.66
2018-11-11T07:28:52.974Z,11.69
2018-11-11T07:29:50.864Z,11.72
2018-11-11T07:30:52.186Z,11.73
2018-11-11T07:31:49.760Z,11.62
2018-11-11T07:32:49.017Z,11.60
2018-11-11T07:33:49.570Z,11.60
2018-11-11T07:37:32.892Z,11.54
2018-11-11T07:38:33.677Z,11.63
2018-11-11T07:39:42.965Z,11.60
2018-11-11T07:40:33.372Z,11.55
2018-11-11T07:41:33.541Z,11.57
2018-11-11T07:42:33.877Z,11.57
2018-11-11T07:43:33.940Z,11.59
2018-11-11T07:44:32.207Z,11.57
2018-11-11T07:45:32.227Z,11.57
2018-11-11T07:46:32.373Z,11.60
2018-11-11T07:47:32.527Z,11.55
2018-11-11T07:48:32.704Z,11.48
2018-11-11T07:49:32.898Z,11.48
2018-11-11T07:50:33.029Z,11.57
2018-11-11T07:51:33.185Z,11.50
2018-11-11T07:52:33.403Z,11.50
2018-11-11T07:53:33.449Z,11.55
2018-11-11T07:54:33.680Z,11.51
2018-11-11T07:55:33.849Z,11.48
2018-11-11T07:56:34.032Z,11.54
2018-11-11T07:57:34.296Z,11.30
2018-11-11T07:58:34.454Z,11.29
2018-11-11T07:59:35.399Z,11.35
2018-11-11T08:00:34.573Z,11.37
2018-11-11T08:01:34.822Z,11.43
2018-11-11T08:02:34.908Z,11.41
2018-11-11T08:03:35.113Z,11.32
2018-11-11T08:04:35.212Z,11.33
2018-11-11T08:05:35.393Z,11.43
2018-11-11T08:06:35.577Z,11.37
2018-11-11T08:07:35.779Z,11.29
2018-11-11T08:08:35.962Z,11.26
2018-11-11T08:09:36.068Z,11.35
2018-11-11T08:10:36.317Z,11.41
2018-11-11T08:11:36.449Z,11.47
2018-11-11T08:12:36.670Z,11.36
2018-11-11T08:13:36.808Z,11.41
2018-11-11T08:14:36.974Z,11.40
2018-11-11T08:15:37.122Z,11.48
2018-11-11T08:16:37.386Z,11.50
2018-11-11T08:17:37.617Z,11.57
2018-11-11T08:18:37.734Z,11.55
2018-11-11T08:19:37.882Z,11.62
2018-11-11T08:20:38.025Z,11.59
2018-11-11T08:21:38.165Z,11.73
2018-11-11T08:22:38.551Z,11.69
2018-11-11T08:23:38.464Z,11.60
2018-11-11T08:24:39.353Z,11.57
2018-11-11T08:25:39.057Z,11.62
2018-11-11T08:26:39.265Z,11.63
2018-11-11T08:27:39.347Z,11.55
2018-11-11T08:28:39.502Z,11.73
2018-11-11T08:29:51.273Z,11.68
2018-11-11T08:30:42.887Z,11.69
2018-11-11T08:31:43.849Z,11.73
2018-11-11T08:33:43.508Z,11.73
2018-11-11T08:34:42.904Z,11.88
2018-11-11T08:35:42.735Z,11.91
2018-11-11T08:36:42.992Z,12.00
2018-11-11T08:37:43.786Z,11.91
2018-11-11T08:38:46.535Z,11.95
2018-11-11T08:39:44.423Z,12.06
2018-11-11T08:49:11.252Z,12.35
2018-11-11T08:50:14.909Z,12.67
2018-11-11T08:51:16.633Z,13.03
2018-11-11T08:52:09.739Z,13.16
2018-11-11T08:54:11.205Z,13.09
2018-11-11T08:55:11.311Z,13.15
2018-11-11T08:56:11.123Z,13.25
2018-11-11T08:58:09.665Z,13.04
2018-11-11T08:59:09.490Z,13.11
2018-11-11T09:00:30.488Z,13.05
2018-11-11T09:01:11.361Z,13.03
2018-11-11T09:02:14.000Z,13.15
2018-11-11T09:03:12.065Z,13.23
2018-11-11T09:04:11.209Z,13.23
2018-11-11T09:05:09.966Z,13.38
2018-11-11T09:06:10.142Z,13.52
2018-11-11T09:07:10.411Z,13.70
2018-11-11T09:08:10.501Z,13.85
2018-11-11T09:09:10.678Z,13.71
2018-11-11T09:10:10.862Z,13.90
2018-11-11T09:11:11.187Z,13.87
2018-11-11T09:12:11.068Z,13.93
2018-11-11T09:13:11.224Z,13.85
2018-11-11T09:14:11.381Z,13.74
2018-11-11T09:15:11.659Z,13.57
2018-11-11T09:16:11.783Z,13.50
2018-11-11T09:17:12.161Z,13.42
2018-11-11T09:18:12.078Z,13.49
2018-11-11T09:19:12.184Z,13.49
2018-11-11T09:20:12.348Z,13.86
2018-11-11T09:21:12.609Z,14.51
2018-11-11T09:22:12.711Z,15.29
2018-11-11T09:23:12.856Z,15.59
2018-11-11T09:24:12.936Z,15.62
2018-11-11T09:25:13.199Z,15.58
2018-11-11T09:26:13.370Z,15.67
2018-11-11T09:27:13.479Z,15.92
2018-11-11T09:28:13.688Z,15.97
2018-11-11T09:29:13.918Z,15.83
2018-11-11T09:30:14.159Z,15.76
2018-11-11T09:31:14.570Z,15.61
2018-11-11T09:32:14.356Z,15.42
2018-11-11T09:33:14.538Z,15.17
2018-11-11T09:34:14.879Z,14.97
2018-11-11T09:35:14.936Z,14.70
2018-11-11T09:36:15.017Z,14.53
2018-11-11T09:37:15.524Z,14.47
2018-11-11T09:38:17.461Z,14.40
2018-11-11T09:39:16.040Z,14.32
2018-11-11T09:40:15.770Z,14.25
2018-11-11T09:41:15.924Z,14.07
2018-11-11T09:42:16.065Z,14.97
2018-11-11T09:43:19.624Z,15.73
2018-11-11T09:44:16.574Z,16.50
2018-11-11T09:45:16.631Z,17.22
2018-11-11T09:46:16.756Z,17.60
2018-11-11T09:47:17.017Z,18.23
2018-11-11T09:48:17.372Z,18.77
2018-11-11T09:49:17.241Z,18.28
2018-11-11T09:50:17.424Z,18.31
2018-11-11T09:51:17.617Z,18.81
2018-11-11T09:52:17.763Z,19.41
2018-11-11T09:53:17.853Z,19.95
2018-11-11T09:54:18.036Z,20.07
2018-11-11T09:55:18.273Z,20.93
2018-11-11T09:56:18.388Z,21.70
2018-11-11T09:57:18.525Z,22.35
2018-11-11T09:58:18.721Z,22.26
2018-11-11T09:59:18.924Z,22.02
2018-11-11T10:00:19.018Z,21.43
2018-11-11T10:01:19.275Z,20.55
2018-11-11T10:02:19.423Z,19.89
2018-11-11T10:03:19.624Z,19.45
2018-11-11T10:04:19.837Z,18.78
2018-11-11T10:05:19.917Z,18.20
2018-11-11T10:06:20.309Z,17.34
2018-11-11T10:07:20.288Z,16.94
2018-11-11T10:08:20.386Z,16.74
2018-11-11T10:09:20.841Z,16.65
2018-11-11T10:10:20.765Z,16.24
2018-11-11T10:11:21.043Z,16.13
2018-11-11T10:12:21.194Z,16.35
2018-11-11T10:13:21.442Z,16.72
2018-11-11T10:14:21.513Z,17.06
2018-11-11T10:15:21.873Z,17.31
2018-11-11T10:16:21.863Z,17.65
2018-11-11T10:17:22.326Z,18.00
2018-11-11T10:18:22.319Z,18.11
2018-11-11T10:19:22.448Z,18.71
2018-11-11T10:20:22.623Z,18.86
2018-11-11T10:21:22.778Z,18.45
2018-11-11T10:22:22.904Z,18.81
2018-11-11T10:23:23.072Z,19.56
2018-11-11T10:24:23.291Z,20.16
2018-11-11T10:25:23.431Z,20.75
2018-11-11T10:26:23.662Z,21.50
2018-11-11T10:27:23.929Z,21.92
2018-11-11T10:28:23.914Z,22.10
2018-11-11T10:29:24.062Z,22.26
2018-11-11T10:30:24.304Z,22.63
2018-11-11T10:31:24.474Z,22.70
2018-11-11T10:32:24.641Z,22.36
2018-11-11T10:33:24.957Z,22.39
2018-11-11T10:34:24.992Z,22.35
2018-11-11T10:35:25.148Z,22.63
2018-11-11T10:36:25.367Z,22.96
2018-11-11T10:37:25.536Z,23.61
2018-11-11T10:38:25.735Z,23.86
2018-11-11T10:39:25.849Z,23.95
2018-11-11T10:40:26.053Z,24.03
2018-11-11T10:41:26.296Z,24.21
2018-11-11T10:42:26.363Z,24.03
2018-11-11T10:43:26.709Z,23.87
2018-11-11T10:44:26.859Z,23.77
2018-11-11T10:45:26.935Z,23.81
2018-11-11T10:46:27.126Z,24.10
2018-11-11T10:47:27.240Z,24.40
2018-11-11T10:48:28.014Z,24.43
2018-11-11T10:49:27.573Z,24.05
2018-11-11T10:50:27.894Z,23.13
2018-11-11T10:51:27.878Z,22.22
2018-11-11T10:52:28.183Z,21.12
2018-11-11T10:53:28.340Z,20.52
2018-11-11T10:54:30.492Z,20.77
2018-11-11T10:55:29.513Z,21.25
2018-11-11T10:56:28.974Z,21.93
2018-11-11T10:57:29.122Z,22.26
2018-11-11T10:58:29.456Z,22.45
2018-11-11T10:59:29.557Z,22.83
2018-11-11T11:00:29.732Z,23.06
2018-11-11T11:01:29.869Z,23.21
2018-11-11T11:02:29.923Z,23.84
2018-11-11T11:03:30.123Z,24.28
2018-11-11T11:04:30.341Z,23.95
2018-11-11T11:05:30.557Z,23.63
2018-11-11T11:06:31.013Z,23.12
2018-11-11T11:07:30.856Z,22.41
2018-11-11T11:08:31.019Z,22.50
2018-11-11T11:09:31.309Z,21.92
2018-11-11T11:10:31.424Z,21.96
2018-11-11T11:11:31.504Z,21.51
2018-11-11T11:12:31.637Z,21.33
2018-11-11T11:13:31.871Z,21.33
2018-11-11T11:14:31.975Z,21.14
2018-11-11T11:15:32.202Z,20.80
2018-11-11T11:16:32.401Z,20.97
2018-11-11T11:17:32.616Z,20.92
2018-11-11T11:18:32.846Z,20.62
2018-11-11T11:19:32.896Z,20.06
2018-11-11T11:20:33.055Z,19.88
2018-11-11T11:21:33.225Z,19.41
2018-11-11T11:22:34.655Z,19.39
2018-11-11T11:23:33.545Z,20.00
2018-11-11T11:24:34.264Z,20.55
2018-11-11T11:25:33.930Z,21.07
2018-11-11T11:26:34.025Z,21.42
2018-11-11T11:27:34.297Z,21.54
2018-11-11T11:28:34.431Z,21.36
2018-11-11T11:29:34.584Z,21.12
2018-11-11T11:30:34.768Z,21.69
2018-11-11T11:31:34.930Z,21.99
2018-11-11T11:32:35.165Z,21.58
2018-11-11T11:33:35.278Z,21.33
2018-11-11T11:34:35.455Z,21.83
2018-11-11T11:35:35.726Z,21.89
2018-11-11T11:36:35.744Z,20.87
2018-11-11T11:37:35.972Z,20.39
2018-11-11T11:38:36.083Z,19.92
2018-11-11T11:39:36.202Z,19.82
2018-11-11T11:40:36.466Z,20.10
2018-11-11T11:41:36.579Z,20.04
2018-11-11T11:42:36.794Z,20.16
2018-11-11T11:43:37.034Z,20.18
2018-11-11T11:44:37.152Z,20.03
2018-11-11T11:45:37.393Z,19.51
2018-11-11T11:46:37.573Z,19.02
2018-11-11T11:47:37.851Z,18.73
2018-11-11T11:48:37.876Z,18.55
2018-11-11T11:49:38.030Z,18.34
2018-11-11T11:50:38.261Z,18.22
2018-11-11T11:51:38.488Z,18.16
2018-11-11T11:52:38.531Z,18.07
2018-11-11T11:53:38.724Z,17.90
2018-11-11T11:54:38.854Z,17.68
2018-11-11T11:55:39.090Z,17.29
2018-11-11T11:56:39.277Z,17.04
2018-11-11T11:57:39.395Z,17.04
2018-11-11T11:58:39.684Z,16.76
2018-11-11T11:59:39.767Z,16.81
2018-11-11T12:00:39.979Z,16.84
2018-11-11T12:01:40.031Z,16.74
2018-11-11T12:02:40.284Z,16.66
2018-11-11T12:03:40.501Z,16.69
2018-11-11T12:04:40.654Z,16.57
2018-11-11T12:05:40.753Z,16.66
2018-11-11T12:06:41.002Z,16.66
2018-11-11T12:07:41.086Z,16.53
2018-11-11T12:08:41.373Z,16.50
2018-11-11T12:09:41.470Z,16.32
2018-11-11T12:10:41.618Z,16.29
2018-11-11T12:11:41.756Z,16.36
2018-11-11T12:12:41.937Z,16.16
2018-11-11T12:13:42.127Z,16.17
2018-11-11T12:14:42.269Z,16.15
2018-11-11T12:15:42.425Z,16.20
2018-11-11T12:16:42.610Z,16.12
2018-11-11T12:17:42.786Z,16.02
2018-11-11T12:18:42.905Z,15.98
2018-11-11T12:19:43.095Z,15.97
2018-11-11T12:20:43.264Z,15.72
2018-11-11T12:21:43.411Z,15.76
2018-11-11T12:22:44.659Z,15.77
2018-11-11T12:23:43.781Z,15.61
2018-11-11T12:24:43.968Z,15.55
2018-11-11T12:25:44.271Z,15.58
2018-11-11T12:26:51.586Z,15.62
2018-11-11T12:27:44.526Z,15.64
2018-11-11T12:28:44.643Z,15.61
2018-11-11T12:29:44.987Z,15.54
2018-11-11T12:30:45.092Z,15.61
2018-11-11T12:31:45.561Z,15.59
2018-11-11T12:32:45.830Z,15.61
2018-11-11T12:33:46.508Z,15.59
2018-11-11T12:34:46.949Z,15.61
2018-11-11T12:35:45.952Z,15.70
2018-11-11T12:36:46.133Z,15.77
2018-11-11T12:37:46.226Z,15.82
2018-11-11T12:38:46.376Z,15.62
2018-11-11T12:39:46.732Z,15.58
2018-11-11T12:40:46.834Z,15.65
2018-11-11T12:41:46.986Z,15.61
2018-11-11T12:42:47.157Z,15.58
2018-11-11T12:43:47.361Z,15.59
2018-11-11T12:44:47.470Z,15.61
2018-11-11T12:45:47.627Z,15.43
2018-11-11T12:46:47.889Z,15.44
2018-11-11T12:47:47.991Z,15.28
2018-11-11T12:48:48.194Z,15.40
2018-11-11T12:49:48.371Z,15.36
2018-11-11T12:50:48.565Z,15.36
2018-11-11T12:51:48.660Z,15.35
2018-11-11T12:52:48.962Z,15.27
2018-11-11T12:53:49.048Z,15.24
2018-11-11T12:54:49.189Z,15.21
2018-11-11T12:55:49.394Z,15.29
2018-11-11T12:56:49.473Z,15.11
2018-11-11T12:57:49.661Z,15.11
2018-11-11T12:58:49.832Z,15.14
2018-11-11T12:59:49.960Z,15.03
2018-11-11T13:00:50.200Z,15.15
2018-11-11T13:01:50.271Z,15.11
2018-11-11T13:02:50.501Z,15.14
2018-11-11T13:03:50.640Z,15.09
2018-11-11T13:04:50.933Z,15.17
2018-11-11T13:05:50.961Z,15.06
2018-11-11T13:06:51.131Z,15.18
2018-11-11T13:07:51.358Z,15.22
2018-11-11T13:08:51.426Z,15.11
2018-11-11T13:09:51.624Z,15.21
2018-11-11T13:10:51.780Z,15.21
2018-11-11T13:11:51.987Z,15.21
2018-11-11T13:12:52.124Z,15.18
2018-11-11T13:13:52.687Z,15.22
2018-11-11T13:14:52.975Z,15.06
2018-11-11T13:16:09.838Z,15.10
2018-11-11T13:17:07.824Z,15.22
2018-11-11T13:17:55.768Z,15.22
2018-11-11T13:19:09.064Z,15.31
2018-11-11T13:19:56.224Z,15.35
2018-11-11T13:21:56.121Z,15.40
2018-11-11T13:22:56.940Z,15.35
2018-11-11T13:23:54.275Z,15.47
2018-11-11T13:24:55.358Z,15.46
2018-11-11T13:25:54.692Z,15.44
2018-11-11T13:26:54.814Z,15.43
2018-11-11T13:27:54.961Z,15.47
2018-11-11T13:28:55.042Z,15.42
2018-11-11T13:29:55.231Z,15.40
2018-11-11T13:30:55.414Z,15.46
2018-11-11T13:31:55.660Z,15.47
2018-11-11T13:32:55.712Z,15.58
2018-11-11T13:33:55.953Z,15.94
2018-11-11T13:34:56.084Z,16.24
2018-11-11T13:35:56.239Z,16.35
2018-11-11T13:36:56.417Z,16.51
2018-11-11T13:37:56.612Z,16.68
2018-11-11T13:38:56.720Z,17.02
2018-11-11T13:39:56.931Z,17.27
2018-11-11T13:40:57.161Z,17.42
2018-11-11T13:41:57.300Z,17.60
2018-11-11T13:42:57.444Z,17.45
2018-11-11T13:43:57.592Z,17.26
2018-11-11T13:44:57.725Z,17.09
2018-11-11T13:45:57.910Z,17.05
2018-11-11T13:46:58.091Z,16.90
2018-11-11T13:47:58.201Z,16.75
2018-11-11T13:48:58.386Z,16.74
2018-11-11T13:49:58.622Z,16.61
2018-11-11T13:50:58.787Z,16.50
2018-11-11T13:51:58.961Z,16.47
2018-11-11T13:52:59.097Z,16.36
2018-11-11T13:53:59.354Z,16.46
2018-11-11T13:54:59.406Z,16.38
2018-11-11T13:55:59.552Z,16.35
2018-11-11T13:56:59.776Z,16.36
2018-11-11T13:57:59.915Z,16.15
2018-11-11T13:59:00.014Z,15.94
2018-11-11T14:00:00.223Z,15.82
2018-11-11T14:01:00.394Z,15.79
2018-11-11T14:02:00.562Z,15.75
2018-11-11T14:03:00.624Z,15.73
2018-11-11T14:04:00.853Z,15.76
2018-11-11T14:05:01.115Z,15.68
2018-11-11T14:06:01.156Z,15.64
2018-11-11T14:07:01.284Z,15.65
2018-11-11T14:08:01.562Z,15.61
2018-11-11T14:09:01.743Z,15.61
2018-11-11T14:10:01.828Z,15.51
2018-11-11T14:11:01.967Z,15.58
2018-11-11T14:12:02.166Z,15.61
2018-11-11T14:13:02.335Z,15.62
2018-11-11T14:14:02.489Z,15.57
2018-11-11T14:15:02.673Z,15.76
2018-11-11T14:16:02.862Z,15.58
2018-11-11T14:17:02.979Z,15.67
2018-11-11T14:18:03.266Z,15.61
2018-11-11T14:19:03.659Z,15.68
2018-11-11T14:20:03.476Z,15.62
2018-11-11T14:21:03.762Z,15.64
2018-11-11T14:22:03.779Z,15.70
2018-11-11T14:23:03.940Z,15.76
2018-11-11T14:24:04.114Z,15.55
2018-11-11T14:25:04.306Z,15.62
2018-11-11T14:26:04.459Z,15.62
2018-11-11T14:27:04.668Z,15.75
2018-11-11T14:28:04.800Z,15.72
2018-11-11T14:29:04.979Z,15.68
2018-11-11T14:30:05.216Z,15.64
2018-11-11T14:31:05.310Z,15.73
2018-11-11T14:32:05.504Z,15.73
2018-11-11T14:33:05.646Z,15.80
2018-11-11T14:34:05.919Z,15.75
2018-11-11T14:35:06.020Z,15.59
2018-11-11T14:36:06.198Z,15.55
2018-11-11T14:37:06.351Z,15.59
2018-11-11T14:38:06.570Z,15.67
2018-11-11T14:39:06.749Z,15.72
2018-11-11T14:40:06.941Z,15.54
2018-11-11T14:41:07.091Z,15.51
2018-11-11T14:42:07.270Z,15.57
2018-11-11T14:43:07.389Z,15.55
2018-11-11T14:44:07.514Z,15.42
2018-11-11T14:45:07.773Z,15.40
2018-11-11T14:46:07.965Z,15.52
2018-11-11T14:47:08.087Z,15.37
2018-11-11T14:48:08.430Z,15.39
2018-11-11T14:49:09.154Z,15.42
2018-11-11T14:50:08.656Z,15.46
2018-11-11T14:51:08.781Z,15.42
2018-11-11T14:52:09.049Z,15.51
2018-11-11T14:53:09.079Z,15.49
2018-11-11T14:54:09.417Z,15.37
2018-11-11T14:55:09.598Z,15.46
2018-11-11T14:56:09.698Z,15.51
2018-11-11T14:57:09.874Z,15.46
2018-11-11T14:58:10.165Z,15.44
2018-11-11T14:59:11.097Z,15.36
2018-11-11T15:00:10.409Z,15.37
2018-11-11T15:01:10.575Z,15.27
2018-11-11T15:02:10.791Z,15.22
2018-11-11T15:03:10.916Z,15.22
2018-11-11T15:04:11.162Z,15.24
2018-11-11T15:05:11.249Z,15.28
2018-11-11T15:06:11.388Z,15.29
2018-11-11T15:07:11.539Z,15.35
2018-11-11T15:08:11.787Z,15.35
2018-11-11T15:09:11.837Z,15.37
2018-11-11T15:10:11.970Z,15.46
2018-11-11T15:11:12.157Z,15.44
2018-11-11T15:12:12.342Z,15.58
2018-11-11T15:13:12.523Z,15.61
2018-11-11T15:14:12.660Z,15.55
2018-11-11T15:15:12.865Z,15.51
2018-11-11T15:16:12.943Z,15.58
2018-11-11T15:17:13.092Z,15.55
2018-11-11T15:18:13.331Z,15.51
2018-11-11T15:19:13.552Z,15.46
2018-11-11T15:20:13.771Z,15.40
2018-11-11T15:21:13.794Z,15.37
2018-11-11T15:22:13.957Z,15.33
2018-11-11T15:23:14.069Z,15.21
2018-11-11T15:24:14.367Z,15.24
2018-11-11T15:25:14.454Z,15.14
2018-11-11T15:26:14.568Z,15.17
2018-11-11T15:27:14.779Z,15.14
2018-11-11T15:28:15.002Z,15.10
2018-11-11T15:29:15.055Z,14.96
2018-11-11T15:30:15.248Z,14.96
2018-11-11T15:31:15.532Z,14.78
2018-11-11T15:32:15.623Z,14.94
2018-11-11T15:33:15.781Z,14.86
2018-11-11T15:34:15.972Z,14.82
2018-11-11T15:35:16.132Z,14.88
2018-11-11T15:36:16.268Z,14.81
2018-11-11T15:37:16.514Z,14.86
2018-11-11T15:38:16.626Z,14.84
2018-11-11T15:39:16.771Z,14.81
2018-11-11T15:40:16.933Z,14.84
2018-11-11T15:41:17.159Z,14.81
2018-11-11T15:42:17.429Z,14.72
2018-11-11T15:43:17.467Z,14.69
2018-11-11T15:44:17.718Z,14.73
2018-11-11T15:45:17.885Z,14.81
2018-11-11T15:46:17.957Z,14.70
2018-11-11T15:47:18.077Z,14.72
2018-11-11T15:48:18.314Z,14.78
2018-11-11T15:49:18.493Z,14.82
2018-11-11T15:50:18.631Z,14.66
2018-11-11T15:51:18.837Z,14.70
2018-11-11T15:52:19.096Z,14.70
2018-11-11T15:53:19.215Z,14.68
2018-11-11T15:54:19.361Z,14.69
2018-11-11T15:55:19.555Z,14.66
2018-11-11T15:56:19.684Z,14.79
2018-11-11T15:57:19.840Z,14.77
2018-11-11T15:58:19.995Z,14.79
2018-11-11T15:59:20.238Z,14.78
2018-11-11T16:00:32.660Z,14.70
2018-11-11T16:01:20.773Z,14.60
2018-11-11T16:02:21.407Z,14.59
2018-11-11T16:03:21.038Z,14.68
2018-11-11T16:04:21.257Z,14.68
2018-11-11T16:05:21.914Z,14.62
2018-11-11T16:06:24.048Z,14.68
2018-11-11T16:07:26.677Z,14.53
2018-11-11T16:10:12.561Z,14.33
2018-11-11T16:11:12.040Z,14.41
2018-11-11T16:14:15.277Z,14.47
2018-11-11T16:15:13.991Z,14.36
2018-11-11T16:16:14.165Z,14.51
2018-11-11T16:17:11.933Z,14.47
2018-11-11T16:18:11.908Z,14.43
2018-11-11T16:19:12.141Z,14.35
2018-11-11T16:20:26.485Z,14.33
2018-11-11T16:21:14.527Z,14.22
2018-11-11T16:22:19.102Z,14.17
2018-11-11T16:23:16.145Z,14.23
2018-11-11T16:24:15.378Z,14.20
2018-11-11T16:25:15.517Z,14.17
2018-11-11T16:26:15.462Z,14.18
2018-11-11T16:27:15.510Z,14.23
2018-11-11T16:28:15.696Z,14.22
2018-11-11T16:29:14.220Z,14.26
2018-11-11T16:30:14.036Z,14.36
2018-11-11T16:31:14.238Z,14.33
2018-11-11T16:32:14.447Z,14.36
2018-11-11T16:33:14.633Z,14.30
2018-11-11T16:34:14.849Z,14.36
2018-11-11T16:35:14.907Z,14.47
2018-11-11T16:36:15.135Z,14.40
2018-11-11T16:37:15.317Z,14.48
2018-11-11T16:38:15.525Z,14.35
2018-11-11T16:39:15.701Z,14.41
2018-11-11T16:40:15.894Z,14.48
2018-11-11T16:41:16.074Z,14.45
2018-11-11T16:42:16.182Z,14.41
2018-11-11T16:43:16.331Z,14.41
2018-11-11T16:44:16.463Z,14.40
2018-11-11T16:45:16.583Z,14.33
2018-11-11T16:46:16.801Z,14.17
2018-11-11T16:47:16.960Z,14.25
2018-11-11T16:48:17.082Z,14.22
2018-11-11T16:49:17.276Z,14.26
2018-11-11T16:50:17.387Z,14.32
2018-11-11T16:51:17.701Z,14.28
2018-11-11T16:52:17.780Z,14.36
2018-11-11T16:53:17.870Z,14.37
2018-11-11T16:54:18.054Z,14.32
2018-11-11T16:55:18.304Z,14.35
2018-11-11T16:56:18.428Z,14.28
2018-11-11T16:57:18.549Z,14.36
2018-11-11T16:58:18.659Z,14.40
2018-11-11T16:59:18.903Z,14.29
2018-11-11T17:00:18.996Z,14.28
2018-11-11T17:01:19.236Z,14.35
2018-11-11T17:02:19.353Z,14.17
2018-11-11T17:03:19.547Z,14.22
2018-11-11T17:04:19.773Z,14.20
2018-11-11T17:05:19.868Z,14.17
2018-11-11T17:06:19.980Z,14.18
2018-11-11T17:07:20.176Z,14.15
2018-11-11T17:08:20.392Z,14.15
2018-11-11T17:09:20.586Z,14.12
2018-11-11T17:10:20.805Z,14.20
2018-11-11T17:11:20.939Z,14.05
2018-11-11T17:12:21.097Z,13.87
2018-11-11T17:13:21.227Z,13.99
2018-11-11T17:14:21.820Z,13.85
2018-11-11T17:15:21.725Z,13.93
2018-11-11T17:16:21.793Z,13.83
2018-11-11T17:17:21.979Z,13.83
2018-11-11T17:18:22.074Z,13.83
2018-11-11T17:19:22.279Z,13.85
2018-11-11T17:20:22.573Z,13.86
2018-11-11T17:21:22.624Z,13.93
2018-11-11T17:22:22.898Z,14.03
2018-11-11T17:23:23.243Z,14.03
2018-11-11T17:24:23.109Z,14.10
2018-11-11T17:25:23.357Z,14.22
2018-11-11T17:26:23.400Z,14.18
2018-11-11T17:27:23.493Z,14.17
2018-11-11T17:28:23.754Z,14.29
2018-11-11T17:29:23.932Z,14.26
2018-11-11T17:30:24.000Z,14.23
2018-11-11T17:31:24.288Z,14.23
2018-11-11T17:32:24.480Z,14.15
2018-11-11T17:33:24.626Z,14.08
2018-11-11T17:34:24.809Z,13.97
2018-11-11T17:35:25.153Z,14.03
2018-11-11T17:36:25.275Z,13.99
2018-11-11T17:37:25.360Z,13.97
2018-11-11T17:38:25.356Z,13.93
2018-11-11T17:39:25.564Z,13.97
2018-11-11T17:40:25.789Z,13.90
2018-11-11T17:41:25.956Z,13.83
2018-11-11T17:42:26.169Z,13.86
2018-11-11T17:43:26.273Z,13.90
2018-11-11T17:44:26.493Z,13.95
2018-11-11T17:45:26.588Z,13.83
2018-11-11T17:46:26.850Z,13.93